createdAt,value
2019-04-04T00:00:58.619Z,19.00
2019-04-04T00:03:27.211Z,19.57
2019-04-04T00:05:56.618Z,19.37
2019-04-04T00:08:25.661Z,19.83
2019-04-04T00:10:54.325Z,19.03
2019-04-04T00:13:22.843Z,20.63
2019-04-04T00:15:51.406Z,20.93
2019-04-04T00:18:19.994Z,21.27
2019-04-04T00:20:48.496Z,21.83
2019-04-04T00:23:17.077Z,22.87
2019-04-04T00:25:45.641Z,23.47
2019-04-04T00:28:14.986Z,23.10
2019-04-04T00:30:44.023Z,24.73
2019-04-04T00:33:12.538Z,24.17
2019-04-04T00:35:41.103Z,24.17
2019-04-04T00:38:09.689Z,23.60
2019-04-04T00:40:38.266Z,24.07
2019-04-04T00:43:06.845Z,23.80
2019-04-04T00:45:35.416Z,24.40
2019-04-04T00:48:04.071Z,24.83
2019-04-04T00:50:32.719Z,24.67
2019-04-04T00:53:01.311Z,24.43
2019-04-04T00:55:29.948Z,25.10
2019-04-04T00:57:58.466Z,24.77
2019-04-04T01:00:26.957Z,24.60
2019-04-04T01:02:58.306Z,24.40
2019-04-04T01:05:25.759Z,24.87
2019-04-04T01:07:54.354Z,25.70
2019-04-04T01:10:22.915Z,23.87
2019-04-04T01:12:52.241Z,23.73
2019-04-04T01:15:21.338Z,23.10
2019-04-04T01:17:50.120Z,25.43
2019-04-04T01:20:20.310Z,23.43
2019-04-04T01:22:49.349Z,25.23
2019-04-04T01:25:17.910Z,24.00
2019-04-04T01:27:46.457Z,24.37
2019-04-04T01:30:15.221Z,24.80
2019-04-04T01:32:43.725Z,26.27
2019-04-04T01:35:12.326Z,24.03
2019-04-04T01:37:40.895Z,25.47
2019-04-04T01:40:09.718Z,23.00
2019-04-04T01:42:38.945Z,23.97
2019-04-04T01:45:08.048Z,23.07
2019-04-04T01:47:36.611Z,23.70
2019-04-04T01:50:05.936Z,24.30
2019-04-04T01:52:34.498Z,24.07
2019-04-04T01:55:04.053Z,23.73
2019-04-04T01:57:32.725Z,22.07
2019-04-04T02:00:01.242Z,23.83
2019-04-04T02:02:29.808Z,23.20
2019-04-04T02:04:58.401Z,22.37
2019-04-04T02:07:27.821Z,20.70
2019-04-04T02:09:57.118Z,20.60
2019-04-04T02:12:25.695Z,21.10
2019-04-04T02:14:54.285Z,20.80
2019-04-04T02:17:22.927Z,20.37
2019-04-04T02:19:51.515Z,21.50
2019-04-04T02:22:20.081Z,20.00
2019-04-04T02:24:48.778Z,19.97
2019-04-04T02:27:17.359Z,22.40
2019-04-04T02:29:45.941Z,21.70
2019-04-04T02:32:19.098Z,24.27
2019-04-04T02:34:47.679Z,20.77
2019-04-04T02:37:16.246Z,22.03
2019-04-04T02:39:44.833Z,20.33
2019-04-04T02:42:13.389Z,23.13
2019-04-04T02:44:41.913Z,22.23
2019-04-04T02:47:10.543Z,19.30
2019-04-04T02:49:39.141Z,22.30
2019-04-04T02:52:07.709Z,23.83
2019-04-04T02:54:36.310Z,24.70
2019-04-04T02:57:08.146Z,22.17
2019-04-04T02:59:35.279Z,21.47
2019-04-04T03:02:05.878Z,24.33
2019-04-04T03:04:34.150Z,22.37
2019-04-04T03:07:02.709Z,24.00
2019-04-04T03:09:31.302Z,24.07
2019-04-04T03:11:59.920Z,23.03
2019-04-04T03:14:28.579Z,23.73
2019-04-04T03:16:57.864Z,23.27
2019-04-04T03:19:26.476Z,24.47
2019-04-04T03:21:56.074Z,24.07
2019-04-04T03:24:24.737Z,24.53
2019-04-04T03:26:53.670Z,25.40
2019-04-04T03:29:22.271Z,25.87
2019-04-04T03:31:50.843Z,25.30
2019-04-04T03:34:19.428Z,23.23
2019-04-04T03:36:48.006Z,28.90
2019-04-04T03:39:19.117Z,24.27
2019-04-04T03:41:46.804Z,24.47
2019-04-04T03:44:19.590Z,23.17
2019-04-04T03:46:45.600Z,26.07
2019-04-04T03:49:14.163Z,23.53
2019-04-04T03:51:42.750Z,24.87
2019-04-04T03:54:12.958Z,24.43
2019-04-04T03:56:41.540Z,24.53
2019-04-04T03:59:10.106Z,23.63
2019-04-04T04:01:38.794Z,21.40
2019-04-04T04:04:07.383Z,21.07
2019-04-04T04:06:35.970Z,22.77
2019-04-04T04:09:06.484Z,21.77
2019-04-04T04:11:37.414Z,23.20
2019-04-04T04:14:05.450Z,21.70
2019-04-04T04:16:35.951Z,23.73
2019-04-04T04:19:04.253Z,21.73
2019-04-04T04:21:32.847Z,24.17
2019-04-04T04:24:01.403Z,21.23
2019-04-04T04:26:29.986Z,23.80
2019-04-04T04:28:58.487Z,21.03
2019-04-04T04:31:27.077Z,23.93
2019-04-04T04:33:55.649Z,22.03
2019-04-04T04:36:24.237Z,18.57
2019-04-04T04:38:52.809Z,22.07
2019-04-04T04:41:21.485Z,21.70
2019-04-04T04:43:49.968Z,21.30
2019-04-04T04:46:18.571Z,20.57
2019-04-04T04:48:47.139Z,22.23
2019-04-04T04:51:15.727Z,25.63
2019-04-04T04:53:44.299Z,24.23
2019-04-04T04:56:12.882Z,26.53
2019-04-04T04:58:42.145Z,23.50
2019-04-04T05:01:11.236Z,24.60
2019-04-04T05:03:39.820Z,24.50
2019-04-04T05:06:08.381Z,25.53
2019-04-04T05:08:36.955Z,28.10
2019-04-04T05:11:05.554Z,22.63
2019-04-04T05:13:34.117Z,23.83
2019-04-04T05:16:04.798Z,27.63
2019-04-04T05:18:32.935Z,26.47
2019-04-04T05:21:02.498Z,29.07
2019-04-04T05:23:31.235Z,24.57
2019-04-04T05:26:02.554Z,23.70
2019-04-04T05:28:30.015Z,25.27
2019-04-04T05:30:58.612Z,27.70
2019-04-04T05:33:28.004Z,24.17
2019-04-04T05:35:57.447Z,26.17
2019-04-04T05:38:25.997Z,27.27
2019-04-04T05:40:55.348Z,23.90
2019-04-04T05:43:24.639Z,25.67
2019-04-04T05:45:53.205Z,25.70
2019-04-04T05:48:21.718Z,27.33
2019-04-04T05:50:50.328Z,24.23
2019-04-04T05:53:21.331Z,23.77
2019-04-04T05:55:49.086Z,24.20
2019-04-04T05:58:17.578Z,24.93
2019-04-04T06:00:46.967Z,25.20
2019-04-04T06:03:15.927Z,22.20
2019-04-04T06:05:44.482Z,22.87
2019-04-04T06:08:12.999Z,21.80
2019-04-04T06:10:41.579Z,20.13
2019-04-04T06:13:10.147Z,46.87
2019-04-04T06:15:38.720Z,32.33
2019-04-04T06:18:10.804Z,23.50
2019-04-04T06:20:37.592Z,24.00
2019-04-04T06:23:06.183Z,21.00
2019-04-04T06:25:35.874Z,21.00
2019-04-04T06:28:04.592Z,21.77
2019-04-04T06:30:42.946Z,24.67
2019-04-04T06:33:04.840Z,20.47
2019-04-04T06:35:34.085Z,25.33
2019-04-04T06:38:02.670Z,25.30
2019-04-04T06:40:31.244Z,22.43
2019-04-04T06:42:59.827Z,21.97
2019-04-04T06:45:29.672Z,22.17
2019-04-04T06:47:58.426Z,20.13
2019-04-04T06:50:26.988Z,21.60
2019-04-04T06:52:56.633Z,22.60
2019-04-04T06:55:28.346Z,24.53
2019-04-04T06:57:55.581Z,22.57
2019-04-04T07:00:24.146Z,21.03
2019-04-04T07:02:55.255Z,20.37
2019-04-04T07:05:22.946Z,20.57
2019-04-04T07:07:51.469Z,17.80
2019-04-04T07:10:21.714Z,20.93
2019-04-04T07:12:50.270Z,21.07
2019-04-04T07:15:18.975Z,20.13
2019-04-04T07:17:47.591Z,18.37
2019-04-04T07:20:17.124Z,21.17
2019-04-04T07:22:46.172Z,20.10
2019-04-04T07:25:14.815Z,22.87
2019-04-04T07:27:45.270Z,22.33
2019-04-04T07:30:15.418Z,21.10
2019-04-04T07:32:44.164Z,21.60
2019-04-04T07:35:12.955Z,22.67
2019-04-04T07:37:41.549Z,22.07
2019-04-04T07:40:10.866Z,23.33
2019-04-04T07:42:40.328Z,21.07
2019-04-04T07:45:09.466Z,23.77
2019-04-04T07:47:38.072Z,24.07
2019-04-04T07:50:07.282Z,25.57
2019-04-04T07:52:35.790Z,26.47
2019-04-04T07:55:05.094Z,30.47
2019-04-04T07:57:33.750Z,28.60
2019-04-04T08:00:02.245Z,30.13
2019-04-04T08:02:30.829Z,34.23
2019-04-04T08:04:59.397Z,30.93
2019-04-04T08:07:27.906Z,29.13
2019-04-04T08:09:56.473Z,27.53
2019-04-04T08:12:25.326Z,26.00
2019-04-04T08:14:53.916Z,25.13
2019-04-04T08:17:22.574Z,26.27
2019-04-04T08:19:59.688Z,26.87
2019-04-04T08:22:21.421Z,25.43
2019-04-04T08:24:50.100Z,27.80
2019-04-04T08:27:20.428Z,27.33
2019-04-04T08:29:48.994Z,25.50
2019-04-04T08:32:17.590Z,27.73
2019-04-04T08:34:46.158Z,30.60
2019-04-04T08:37:14.840Z,27.60
2019-04-04T08:39:43.407Z,28.83
2019-04-04T08:42:12.006Z,24.70
2019-04-04T08:44:40.598Z,26.97
2019-04-04T08:47:09.186Z,20.90
2019-04-04T08:49:37.682Z,21.50
2019-04-04T08:52:16.036Z,23.43
2019-04-04T08:54:36.466Z,21.43
2019-04-04T08:57:05.078Z,22.70
2019-04-04T08:59:33.659Z,23.00
2019-04-04T09:02:02.247Z,21.10
2019-04-04T09:04:30.832Z,20.73
2019-04-04T09:06:59.434Z,23.80
2019-04-04T09:09:28.019Z,23.83
2019-04-04T09:11:56.615Z,22.23
2019-04-04T09:14:25.185Z,23.57
2019-04-04T09:16:53.745Z,20.67
2019-04-04T09:19:22.258Z,20.63
2019-04-04T09:21:50.832Z,18.83
2019-04-04T09:24:19.417Z,22.60
2019-04-04T09:26:47.979Z,19.13
2019-04-04T09:29:16.562Z,17.63
2019-04-04T09:31:45.058Z,15.77
2019-04-04T09:34:13.651Z,18.87
2019-04-04T09:36:42.227Z,18.00
2019-04-04T09:39:10.897Z,18.87
2019-04-04T09:41:39.477Z,15.37
2019-04-04T09:44:08.077Z,15.50
2019-04-04T09:46:36.656Z,15.83
2019-04-04T09:49:05.313Z,13.97
2019-04-04T09:51:33.806Z,16.63
2019-04-04T09:54:02.394Z,14.63
2019-04-04T09:56:30.954Z,13.43
2019-04-04T09:58:59.545Z,14.50
2019-04-04T10:01:28.109Z,14.10
2019-04-04T10:03:56.702Z,13.67
2019-04-04T10:06:25.262Z,13.83
2019-04-04T10:08:53.845Z,16.13
2019-04-04T10:11:22.548Z,16.23
2019-04-04T10:13:51.168Z,18.07
2019-04-04T10:16:19.709Z,15.90
2019-04-04T10:18:48.361Z,15.23
2019-04-04T10:21:16.874Z,16.43
2019-04-04T10:23:45.467Z,18.30
2019-04-04T10:26:14.029Z,16.77
2019-04-04T10:31:16.499Z,14.90
2019-04-04T10:33:45.091Z,16.07
2019-04-04T10:36:13.666Z,17.73
2019-04-04T10:38:42.261Z,15.73
2019-04-04T10:41:10.827Z,16.77
2019-04-04T10:43:39.353Z,16.73
2019-04-04T10:46:07.925Z,19.27
2019-04-04T10:48:36.521Z,20.93
2019-04-04T10:51:05.172Z,17.37
2019-04-04T10:53:33.827Z,17.07
2019-04-04T10:56:02.402Z,15.17
2019-04-04T10:58:30.993Z,17.63
2019-04-04T11:00:59.553Z,17.60
2019-04-04T11:03:28.070Z,17.87
2019-04-04T11:05:56.703Z,18.23
2019-04-04T11:08:25.279Z,14.50
2019-04-04T11:10:53.866Z,12.37
2019-04-04T11:38:48.209Z,16.73
2019-04-04T11:41:16.816Z,14.93
2019-04-04T11:43:45.368Z,13.97
2019-04-04T11:46:13.966Z,14.47
2019-04-04T11:48:42.508Z,13.60
2019-04-04T11:51:11.091Z,15.10
2019-04-04T11:53:39.662Z,14.13
2019-04-04T11:56:08.239Z,14.63
2019-04-04T11:58:36.802Z,14.43
2019-04-04T12:01:07.214Z,14.00
2019-04-04T12:03:35.774Z,25.27
2019-04-04T12:06:04.352Z,14.97
2019-04-04T12:08:32.917Z,16.63
2019-04-04T12:11:01.509Z,14.63
2019-04-04T12:13:30.069Z,14.50
2019-04-04T12:15:58.578Z,16.07
2019-04-04T12:18:27.067Z,17.50
2019-04-04T12:20:55.580Z,14.40
2019-04-04T12:23:24.146Z,14.40
2019-04-04T12:25:52.794Z,17.67
2019-04-04T12:28:21.366Z,15.97
2019-04-04T12:30:49.944Z,14.80
2019-04-04T12:33:18.510Z,17.33
2019-04-04T12:35:47.098Z,15.23
2019-04-04T12:38:15.599Z,15.00
2019-04-04T12:40:44.173Z,16.27
2019-04-04T12:43:13.189Z,15.87
2019-04-04T12:45:41.789Z,19.13
2019-04-04T12:48:10.347Z,14.23
2019-04-04T12:50:38.925Z,17.13
2019-04-04T12:53:07.473Z,16.63
2019-04-04T12:55:35.986Z,17.40
2019-04-04T12:58:04.481Z,15.77
2019-04-04T13:03:06.789Z,15.60
2019-04-04T13:05:36.720Z,14.57
2019-04-04T13:08:06.371Z,14.90
2019-04-04T13:10:34.950Z,16.33
2019-04-04T13:13:03.437Z,17.73
2019-04-04T13:15:31.951Z,15.50
2019-04-04T13:18:00.508Z,15.70
2019-04-04T13:20:29.962Z,15.33
2019-04-04T13:22:58.458Z,17.97
2019-04-04T13:25:26.974Z,17.33
2019-04-04T13:27:57.288Z,16.20
2019-04-04T13:30:26.031Z,21.23
2019-04-04T13:32:54.656Z,15.27
2019-04-04T13:35:25.122Z,11.23
2019-04-04T13:37:53.681Z,10.20
2019-04-04T13:40:22.191Z,10.60
2019-04-04T13:42:52.706Z,7.40
2019-04-04T13:45:22.943Z,5.70
2019-04-04T13:47:51.262Z,6.63
2019-04-04T13:50:20.643Z,6.50
2019-04-04T13:52:49.259Z,8.60
2019-04-04T13:55:17.840Z,7.83
2019-04-04T13:57:47.687Z,7.10
2019-04-04T14:00:17.027Z,6.83
2019-04-04T14:02:45.585Z,8.10
2019-04-04T14:05:14.668Z,7.47
2019-04-04T14:07:44.101Z,6.90
2019-04-04T14:10:12.878Z,6.93
2019-04-04T14:12:41.458Z,6.47
2019-04-04T14:15:10.949Z,6.67
2019-04-04T14:17:39.455Z,6.27
2019-04-04T14:20:09.961Z,6.27
2019-04-04T14:22:38.601Z,6.40
2019-04-04T14:25:07.353Z,6.10
2019-04-04T14:27:35.994Z,8.03
2019-04-04T14:30:06.404Z,5.87
2019-04-04T14:32:35.094Z,6.33
2019-04-04T14:35:04.722Z,5.50
2019-04-04T14:37:33.282Z,5.40
2019-04-04T14:40:01.771Z,6.77
2019-04-04T14:42:30.341Z,6.40
2019-04-04T14:44:59.891Z,6.77
2019-04-04T14:47:29.055Z,8.57
2019-04-04T14:49:57.544Z,6.53
2019-04-04T14:52:26.121Z,9.10
2019-04-04T14:54:54.610Z,9.40
2019-04-04T14:57:23.202Z,7.73
2019-04-04T14:59:51.680Z,6.73
2019-04-04T15:02:20.426Z,6.50
2019-04-04T15:04:48.982Z,8.03
2019-04-04T15:07:17.487Z,8.20
2019-04-04T15:09:46.044Z,9.27
2019-04-04T15:12:14.618Z,8.17
2019-04-04T15:14:43.125Z,8.50
2019-04-04T15:17:11.643Z,12.80
2019-04-04T15:19:40.208Z,10.37
2019-04-04T15:22:08.786Z,10.37
2019-04-04T15:24:37.279Z,9.07
2019-04-04T15:27:05.865Z,10.03
2019-04-04T15:29:34.354Z,11.03
2019-04-04T15:32:03.006Z,10.97
2019-04-04T15:34:31.569Z,9.43
2019-04-04T15:37:00.151Z,10.00
2019-04-04T15:39:28.942Z,8.50
2019-04-04T15:41:57.473Z,10.03
2019-04-04T15:44:25.958Z,9.87
2019-04-04T15:46:54.542Z,10.77
2019-04-04T15:49:23.033Z,9.63
2019-04-04T15:51:51.617Z,10.20
2019-04-04T15:54:20.106Z,9.60
2019-04-04T15:56:48.694Z,12.00
2019-04-04T15:59:17.259Z,11.97
2019-04-04T16:01:45.949Z,14.03
2019-04-04T16:04:14.442Z,9.70
2019-04-04T16:06:43.025Z,11.27
2019-04-04T16:09:11.593Z,12.50
2019-04-04T16:11:49.233Z,10.03
2019-04-04T16:14:10.465Z,10.90
2019-04-04T16:16:39.040Z,11.57
2019-04-04T16:19:07.534Z,12.23
2019-04-04T16:21:36.115Z,10.77
2019-04-04T16:24:04.750Z,12.00
2019-04-04T16:26:33.330Z,9.83
2019-04-04T16:29:01.890Z,12.80
2019-04-04T16:31:30.482Z,12.03
2019-04-04T16:33:59.063Z,10.60
2019-04-04T16:36:27.597Z,11.23
2019-04-04T16:38:56.110Z,10.80
2019-04-04T16:41:24.747Z,13.47
2019-04-04T16:43:53.336Z,12.50
2019-04-04T16:46:21.917Z,12.30
2019-04-04T16:48:50.498Z,12.30
2019-04-04T16:51:19.068Z,12.83
2019-04-04T16:53:48.798Z,11.67
2019-04-04T16:56:17.289Z,13.37
2019-04-04T16:58:45.873Z,14.40
2019-04-04T17:01:14.353Z,11.67
2019-04-04T17:03:42.866Z,13.47
2019-04-04T17:06:11.354Z,13.07
2019-04-04T17:08:39.942Z,12.87
2019-04-04T17:11:08.519Z,12.83
2019-04-04T17:13:37.105Z,11.83
2019-04-04T17:16:05.808Z,12.60
2019-04-04T17:18:34.395Z,15.17
2019-04-04T17:21:02.962Z,11.87
2019-04-04T17:23:31.545Z,14.97
2019-04-04T17:26:00.120Z,11.07
2019-04-04T17:28:28.624Z,10.90
2019-04-04T17:30:57.640Z,13.17
2019-04-04T17:33:26.453Z,12.97
2019-04-04T17:35:55.000Z,13.83
2019-04-04T17:38:24.083Z,11.70
2019-04-04T17:40:52.973Z,11.00
2019-04-04T17:43:22.037Z,12.87
2019-04-04T17:45:50.713Z,12.10
2019-04-04T17:48:19.247Z,11.77
2019-04-04T17:50:48.379Z,16.33
2019-04-04T17:53:17.017Z,12.67
2019-04-04T17:55:46.097Z,10.77
2019-04-04T17:58:14.800Z,12.47
2019-04-04T18:00:43.287Z,14.37
2019-04-04T18:03:11.791Z,12.63
2019-04-04T18:05:40.383Z,13.40
2019-04-04T18:08:08.982Z,11.90
2019-04-04T18:10:37.546Z,9.70
2019-04-04T18:13:06.064Z,9.93
2019-04-04T18:15:34.638Z,8.77
2019-04-04T18:18:03.203Z,8.77
2019-04-04T18:20:31.835Z,14.40
2019-04-04T18:23:00.349Z,12.77
2019-04-04T18:25:28.913Z,12.27
2019-04-04T18:27:57.503Z,11.27
2019-04-04T18:30:26.133Z,12.07
2019-04-04T18:32:54.706Z,9.77
2019-04-04T18:35:23.194Z,11.67
2019-04-04T18:37:51.847Z,12.20
2019-04-04T18:40:20.517Z,12.17
2019-04-04T18:42:53.437Z,9.60
2019-04-04T18:45:19.371Z,13.10
2019-04-04T18:47:47.931Z,11.27
2019-04-04T18:50:16.658Z,12.37
2019-04-04T18:52:45.206Z,9.73
2019-04-04T18:55:19.739Z,10.87
2019-04-04T18:57:44.060Z,19.57
2019-04-04T19:00:13.710Z,13.57
2019-04-04T19:02:42.612Z,14.47
2019-04-04T19:05:11.635Z,12.37
2019-04-04T19:07:40.194Z,12.37
2019-04-04T19:10:09.117Z,24.77
2019-04-04T19:12:37.818Z,21.00
2019-04-04T19:15:07.962Z,13.43
2019-04-04T19:17:36.678Z,13.07
2019-04-04T19:20:09.992Z,13.33
2019-04-04T19:22:38.018Z,13.53
2019-04-04T19:25:08.065Z,14.23
2019-04-04T19:27:36.702Z,12.93
2019-04-04T19:30:11.525Z,15.83
2019-04-04T19:32:40.082Z,14.50
2019-04-04T19:35:08.931Z,13.33
2019-04-04T19:37:37.538Z,13.47
2019-04-04T19:40:06.752Z,14.60
2019-04-04T19:42:35.326Z,12.07
2019-04-04T19:45:05.873Z,11.63
2019-04-04T19:47:34.364Z,14.07
2019-04-04T19:50:03.213Z,12.83
2019-04-04T19:52:31.777Z,13.57
2019-04-04T19:55:00.286Z,16.27
2019-04-04T19:57:29.061Z,17.97
2019-04-04T19:59:57.647Z,15.30
2019-04-04T20:02:26.209Z,17.23
2019-04-04T20:04:54.719Z,20.37
2019-04-04T20:07:23.282Z,17.30
2019-04-04T20:09:51.875Z,14.50
2019-04-04T20:12:20.783Z,17.87
2019-04-04T20:14:49.370Z,20.17
2019-04-04T20:17:17.929Z,39.33
2019-04-04T20:19:46.514Z,25.50
2019-04-04T20:22:15.009Z,28.73
2019-04-04T20:24:43.531Z,25.63
2019-04-04T20:27:12.157Z,21.40
2019-04-04T20:29:40.670Z,18.33
2019-04-04T20:32:09.234Z,18.77
2019-04-04T20:34:37.818Z,17.83
2019-04-04T20:37:06.302Z,16.97
2019-04-04T20:39:34.892Z,20.17
2019-04-04T20:42:03.445Z,18.83
2019-04-04T20:44:32.033Z,20.20
2019-04-04T20:47:00.600Z,18.23
2019-04-04T20:49:29.162Z,18.77
2019-04-04T20:51:57.751Z,17.47
2019-04-04T20:54:26.318Z,18.10
2019-04-04T20:56:54.835Z,18.90
2019-04-04T20:59:23.401Z,17.77
2019-04-04T21:01:51.921Z,17.87
2019-04-04T21:04:20.488Z,16.87
2019-04-04T21:06:49.074Z,18.40
2019-04-04T21:09:17.641Z,20.57
2019-04-04T21:11:46.230Z,23.23
2019-04-04T21:14:14.799Z,19.83
2019-04-04T21:16:43.384Z,23.07
2019-04-04T21:19:11.950Z,20.90
2019-04-04T21:21:40.460Z,25.27
2019-04-04T21:24:08.950Z,18.50
2019-04-04T21:26:37.529Z,21.03
2019-04-04T21:29:06.023Z,22.10
2019-04-04T21:31:34.607Z,23.07
2019-04-04T21:34:03.177Z,18.60
2019-04-04T21:36:31.695Z,23.30
2019-04-04T21:39:00.262Z,23.13
2019-04-04T21:41:28.850Z,22.80
2019-04-04T21:44:08.100Z,20.47
2019-04-04T21:46:27.566Z,21.17
2019-04-04T21:48:56.050Z,20.13
2019-04-04T21:51:24.634Z,20.87
2019-04-04T21:53:53.198Z,21.00
2019-04-04T21:56:21.782Z,22.63
2019-04-04T21:58:50.345Z,19.50
2019-04-04T22:01:19.064Z,23.27
2019-04-04T22:03:47.629Z,21.40
2019-04-04T22:06:16.156Z,21.97
2019-04-04T22:08:44.933Z,18.57
2019-04-04T22:11:13.675Z,20.67
2019-04-04T22:13:42.243Z,24.97
2019-04-04T22:16:10.911Z,24.53
2019-04-04T22:18:39.398Z,21.63
2019-04-04T22:21:07.992Z,22.83
2019-04-04T22:23:36.617Z,21.83
2019-04-04T22:26:05.127Z,21.43
2019-04-04T22:28:33.698Z,22.03
2019-04-04T22:31:02.207Z,20.77
2019-04-04T22:33:30.765Z,19.53
2019-04-04T22:35:59.350Z,21.10
2019-04-04T22:38:27.926Z,21.43
2019-04-04T22:40:56.515Z,27.00
2019-04-04T22:43:25.080Z,22.50
2019-04-04T22:45:53.660Z,23.30
2019-04-04T22:48:22.221Z,23.70
2019-04-04T22:50:50.803Z,24.23
2019-04-04T22:53:19.369Z,21.93
2019-04-04T22:55:47.878Z,24.43
2019-04-04T22:58:27.601Z,22.13
2019-04-04T23:00:46.674Z,23.33
2019-04-04T23:03:15.905Z,23.00
2019-04-04T23:05:44.416Z,23.03
2019-04-04T23:08:13.154Z,22.07
2019-04-04T23:10:41.738Z,22.50
2019-04-04T23:13:10.235Z,23.20
2019-04-04T23:15:38.835Z,23.40
2019-04-04T23:18:07.404Z,23.37
2019-04-04T23:20:35.957Z,24.30
2019-04-04T23:23:04.468Z,25.20
2019-04-04T23:25:33.058Z,27.83
2019-04-04T23:28:01.618Z,23.73
2019-04-04T23:30:30.254Z,25.67
2019-04-04T23:32:58.973Z,24.97
2019-04-04T23:35:27.465Z,26.17
2019-04-04T23:37:56.059Z,26.67
2019-04-04T23:40:24.622Z,23.70
2019-04-04T23:42:53.209Z,26.47
2019-04-04T23:45:21.775Z,24.53
2019-04-04T23:47:50.359Z,28.70
2019-04-04T23:50:18.930Z,31.87
2019-04-04T23:52:47.515Z,23.67
2019-04-04T23:55:16.090Z,30.87
2019-04-04T23:57:44.680Z,25.63
